sensor_id;sensor_type;location;lat;lon;timestamp;temperature;humidity
18297;DHT22;18066;52.106;5.534;2023-07-02T00:01:39;17.70;99.90
18297;DHT22;18066;52.106;5.534;2023-07-02T00:04:06;17.40;99.90
18297;DHT22;18066;52.106;5.534;2023-07-02T00:06:34;17.20;99.90
18297;DHT22;18066;52.106;5.534;2023-07-02T00:11:42;17.00;99.90
18297;DHT22;18066;52.106;5.534;2023-07-02T00:14:18;17.00;99.90
18297;DHT22;18066;52.106;5.534;2023-07-02T00:16:53;17.00;99.90
18297;DHT22;18066;52.106;5.534;2023-07-02T00:19:26;17.10;99.90
18297;DHT22;18066;52.106;5.534;2023-07-02T00:21:57;17.10;99.90
18297;DHT22;18066;52.106;5.534;2023-07-02T00:24:45;17.10;99.90
18297;DHT22;18066;52.106;5.534;2023-07-02T00:27:25;17.10;99.90
18297;DHT22;18066;52.106;5.534;2023-07-02T00:30:12;17.00;99.90
18297;DHT22;18066;52.106;5.534;2023-07-02T00:33:06;16.90;99.90
18297;DHT22;18066;52.106;5.534;2023-07-02T00:35:54;16.80;99.90
18297;DHT22;18066;52.106;5.534;2023-07-02T00:38:44;16.70;99.90
18297;DHT22;18066;52.106;5.534;2023-07-02T00:41:33;16.80;99.90
18297;DHT22;18066;52.106;5.534;2023-07-02T00:44:16;16.60;99.90
18297;DHT22;18066;52.106;5.534;2023-07-02T00:47:04;16.70;99.90
18297;DHT22;18066;52.106;5.534;2023-07-02T00:49:39;16.80;99.90
18297;DHT22;18066;52.106;5.534;2023-07-02T00:52:17;16.70;99.90
18297;DHT22;18066;52.106;5.534;2023-07-02T00:55:18;16.70;99.90
18297;DHT22;18066;52.106;5.534;2023-07-02T00:57:57;16.80;99.90
18297;DHT22;18066;52.106;5.534;2023-07-02T01:00:31;16.70;99.90
18297;DHT22;18066;52.106;5.534;2023-07-02T01:03:24;16.70;99.90
18297;DHT22;18066;52.106;5.534;2023-07-02T01:06:04;16.70;99.90
18297;DHT22;18066;52.106;5.534;2023-07-02T01:08:38;16.70;99.90
18297;DHT22;18066;52.106;5.534;2023-07-02T01:11:40;16.60;99.90
18297;DHT22;18066;52.106;5.534;2023-07-02T01:14:58;16.50;99.90
18297;DHT22;18066;52.106;5.534;2023-07-02T01:17:43;16.40;99.90
18297;DHT22;18066;52.106;5.534;2023-07-02T01:20:33;16.40;99.90
18297;DHT22;18066;52.106;5.534;2023-07-02T01:23:30;16.40;99.90
18297;DHT22;18066;52.106;5.534;2023-07-02T01:26:10;16.40;99.90
18297;DHT22;18066;52.106;5.534;2023-07-02T01:29:05;16.40;99.90
18297;DHT22;18066;52.106;5.534;2023-07-02T01:32:02;16.40;99.90
18297;DHT22;18066;52.106;5.534;2023-07-02T01:34:56;16.40;99.90
18297;DHT22;18066;52.106;5.534;2023-07-02T01:37:40;16.40;99.90
18297;DHT22;18066;52.106;5.534;2023-07-02T01:40:20;16.30;99.90
18297;DHT22;18066;52.106;5.534;2023-07-02T01:43:03;16.20;99.90
18297;DHT22;18066;52.106;5.534;2023-07-02T01:45:38;16.10;99.90
18297;DHT22;18066;52.106;5.534;2023-07-02T01:48:23;16.10;99.90
18297;DHT22;18066;52.106;5.534;2023-07-02T01:51:07;16.00;99.90
18297;DHT22;18066;52.106;5.534;2023-07-02T01:55:11;16.00;99.90
18297;DHT22;18066;52.106;5.534;2023-07-02T01:56:39;16.00;99.90
18297;DHT22;18066;52.106;5.534;2023-07-02T01:59:15;15.90;99.90
18297;DHT22;18066;52.106;5.534;2023-07-02T02:01:47;15.90;99.90
18297;DHT22;18066;52.106;5.534;2023-07-02T02:04:45;15.80;99.90
18297;DHT22;18066;52.106;5.534;2023-07-02T02:07:34;15.80;99.90
18297;DHT22;18066;52.106;5.534;2023-07-02T02:10:28;15.70;99.90
18297;DHT22;18066;52.106;5.534;2023-07-02T02:13:18;15.60;99.90
18297;DHT22;18066;52.106;5.534;2023-07-02T02:16:14;15.60;99.90
18297;DHT22;18066;52.106;5.534;2023-07-02T02:21:43;15.70;99.90
18297;DHT22;18066;52.106;5.534;2023-07-02T02:24:24;15.70;99.90
18297;DHT22;18066;52.106;5.534;2023-07-02T02:27:12;15.70;99.90
18297;DHT22;18066;52.106;5.534;2023-07-02T02:30:05;15.70;99.90
18297;DHT22;18066;52.106;5.534;2023-07-02T02:32:51;15.70;99.90
18297;DHT22;18066;52.106;5.534;2023-07-02T02:35:27;15.50;99.90
18297;DHT22;18066;52.106;5.534;2023-07-02T02:41:14;15.50;99.90
18297;DHT22;18066;52.106;5.534;2023-07-02T02:43:52;15.50;99.90
18297;DHT22;18066;52.106;5.534;2023-07-02T02:46:28;15.30;99.90
18297;DHT22;18066;52.106;5.534;2023-07-02T02:49:12;15.20;99.90
18297;DHT22;18066;52.106;5.534;2023-07-02T02:51:41;15.10;99.90
18297;DHT22;18066;52.106;5.534;2023-07-02T02:54:11;15.00;99.90
18297;DHT22;18066;52.106;5.534;2023-07-02T02:56:59;15.00;99.90
18297;DHT22;18066;52.106;5.534;2023-07-02T02:59:35;14.90;99.90
18297;DHT22;18066;52.106;5.534;2023-07-02T03:02:46;14.90;99.90
18297;DHT22;18066;52.106;5.534;2023-07-02T03:05:28;14.90;99.90
18297;DHT22;18066;52.106;5.534;2023-07-02T03:08:06;14.90;99.90
18297;DHT22;18066;52.106;5.534;2023-07-02T03:10:34;15.00;99.90
18297;DHT22;18066;52.106;5.534;2023-07-02T03:13:18;15.00;99.90
18297;DHT22;18066;52.106;5.534;2023-07-02T03:16:07;15.00;99.90
18297;DHT22;18066;52.106;5.534;2023-07-02T03:18:59;15.10;99.90
18297;DHT22;18066;52.106;5.534;2023-07-02T03:21:51;15.10;99.90
18297;DHT22;18066;52.106;5.534;2023-07-02T03:24:33;15.20;99.90
18297;DHT22;18066;52.106;5.534;2023-07-02T03:27:22;15.10;99.90
18297;DHT22;18066;52.106;5.534;2023-07-02T03:30:06;15.10;99.90
18297;DHT22;18066;52.106;5.534;2023-07-02T03:32:51;15.10;99.90
18297;DHT22;18066;52.106;5.534;2023-07-02T03:35:38;15.20;99.90
18297;DHT22;18066;52.106;5.534;2023-07-02T03:38:16;15.00;99.90
18297;DHT22;18066;52.106;5.534;2023-07-02T03:40:49;14.90;99.90
18297;DHT22;18066;52.106;5.534;2023-07-02T03:43:19;14.80;99.90
18297;DHT22;18066;52.106;5.534;2023-07-02T03:46:00;14.80;99.90
18297;DHT22;18066;52.106;5.534;2023-07-02T03:48:43;14.80;99.90
18297;DHT22;18066;52.106;5.534;2023-07-02T03:51:12;14.80;99.90
18297;DHT22;18066;52.106;5.534;2023-07-02T03:53:53;14.70;99.90
18297;DHT22;18066;52.106;5.534;2023-07-02T03:56:27;14.70;99.90
18297;DHT22;18066;52.106;5.534;2023-07-02T03:58:59;14.70;99.90
18297;DHT22;18066;52.106;5.534;2023-07-02T04:01:31;14.50;99.90
18297;DHT22;18066;52.106;5.534;2023-07-02T04:04:19;14.70;99.90
18297;DHT22;18066;52.106;5.534;2023-07-02T04:06:58;14.70;99.90
18297;DHT22;18066;52.106;5.534;2023-07-02T04:09:39;14.70;99.90
18297;DHT22;18066;52.106;5.534;2023-07-02T04:12:13;14.80;99.90
18297;DHT22;18066;52.106;5.534;2023-07-02T04:15:11;14.80;99.90
18297;DHT22;18066;52.106;5.534;2023-07-02T04:17:51;14.70;99.90
18297;DHT22;18066;52.106;5.534;2023-07-02T04:20:22;14.80;99.90
18297;DHT22;18066;52.106;5.534;2023-07-02T04:23:01;14.70;99.90
18297;DHT22;18066;52.106;5.534;2023-07-02T04:25:29;14.80;99.90
18297;DHT22;18066;52.106;5.534;2023-07-02T04:28:06;14.90;99.90
18297;DHT22;18066;52.106;5.534;2023-07-02T04:31:01;14.90;99.90
18297;DHT22;18066;52.106;5.534;2023-07-02T04:33:39;15.00;99.90
18297;DHT22;18066;52.106;5.534;2023-07-02T04:36:20;15.00;99.90
18297;DHT22;18066;52.106;5.534;2023-07-02T04:38:59;15.10;99.90
18297;DHT22;18066;52.106;5.534;2023-07-02T04:41:37;15.10;99.90
18297;DHT22;18066;52.106;5.534;2023-07-02T04:44:16;15.00;99.90
18297;DHT22;18066;52.106;5.534;2023-07-02T04:47:01;15.00;99.90
18297;DHT22;18066;52.106;5.534;2023-07-02T04:49:40;14.90;99.90
18297;DHT22;18066;52.106;5.534;2023-07-02T04:52:20;14.90;99.90
18297;DHT22;18066;52.106;5.534;2023-07-02T04:54:51;15.10;99.90
18297;DHT22;18066;52.106;5.534;2023-07-02T04:57:30;15.00;99.90
18297;DHT22;18066;52.106;5.534;2023-07-02T05:00:12;15.00;99.90
18297;DHT22;18066;52.106;5.534;2023-07-02T05:02:47;15.10;99.90
18297;DHT22;18066;52.106;5.534;2023-07-02T05:08:26;15.20;99.90
18297;DHT22;18066;52.106;5.534;2023-07-02T05:10:54;15.30;99.90
18297;DHT22;18066;52.106;5.534;2023-07-02T05:13:30;15.30;99.90
18297;DHT22;18066;52.106;5.534;2023-07-02T05:19:38;15.60;99.90
18297;DHT22;18066;52.106;5.534;2023-07-02T05:22:26;15.80;99.90
18297;DHT22;18066;52.106;5.534;2023-07-02T05:25:35;15.90;99.90
18297;DHT22;18066;52.106;5.534;2023-07-02T05:28:28;15.70;99.90
18297;DHT22;18066;52.106;5.534;2023-07-02T05:31:23;15.70;99.90
18297;DHT22;18066;52.106;5.534;2023-07-02T05:34:25;15.90;99.90
18297;DHT22;18066;52.106;5.534;2023-07-02T05:42:57;15.90;99.90
18297;DHT22;18066;52.106;5.534;2023-07-02T05:43:32;16.00;99.90
18297;DHT22;18066;52.106;5.534;2023-07-02T05:49:43;16.20;99.90
18297;DHT22;18066;52.106;5.534;2023-07-02T05:52:37;16.10;99.90
18297;DHT22;18066;52.106;5.534;2023-07-02T05:55:20;16.00;99.90
18297;DHT22;18066;52.106;5.534;2023-07-02T06:25:13;16.70;99.90
18297;DHT22;18066;52.106;5.534;2023-07-02T06:27:40;16.80;99.90
18297;DHT22;18066;52.106;5.534;2023-07-02T06:30:07;17.00;99.90
18297;DHT22;18066;52.106;5.534;2023-07-02T06:32:34;17.10;99.90
18297;DHT22;18066;52.106;5.534;2023-07-02T06:35:01;17.10;99.90
18297;DHT22;18066;52.106;5.534;2023-07-02T06:37:28;17.10;99.90
18297;DHT22;18066;52.106;5.534;2023-07-02T06:39:55;17.20;99.90
18297;DHT22;18066;52.106;5.534;2023-07-02T06:42:24;17.30;99.90
18297;DHT22;18066;52.106;5.534;2023-07-02T06:44:51;17.20;99.90
18297;DHT22;18066;52.106;5.534;2023-07-02T06:47:18;17.30;99.90
18297;DHT22;18066;52.106;5.534;2023-07-02T06:49:45;17.30;99.90
18297;DHT22;18066;52.106;5.534;2023-07-02T06:52:11;17.40;99.90
18297;DHT22;18066;52.106;5.534;2023-07-02T06:54:38;17.60;99.90
18297;DHT22;18066;52.106;5.534;2023-07-02T06:57:06;17.50;99.90
18297;DHT22;18066;52.106;5.534;2023-07-02T06:59:34;17.60;99.90
18297;DHT22;18066;52.106;5.534;2023-07-02T07:02:01;17.70;99.90
18297;DHT22;18066;52.106;5.534;2023-07-02T07:04:28;17.80;99.90
18297;DHT22;18066;52.106;5.534;2023-07-02T07:06:55;17.90;99.90
18297;DHT22;18066;52.106;5.534;2023-07-02T07:09:22;17.80;99.90
18297;DHT22;18066;52.106;5.534;2023-07-02T07:11:49;17.50;99.90
18297;DHT22;18066;52.106;5.534;2023-07-02T07:14:16;17.30;99.90
18297;DHT22;18066;52.106;5.534;2023-07-02T07:16:44;17.40;99.90
18297;DHT22;18066;52.106;5.534;2023-07-02T07:19:10;17.60;99.90
18297;DHT22;18066;52.106;5.534;2023-07-02T07:21:37;17.90;99.90
18297;DHT22;18066;52.106;5.534;2023-07-02T07:24:05;18.00;99.90
18297;DHT22;18066;52.106;5.534;2023-07-02T07:26:33;17.90;99.90
18297;DHT22;18066;52.106;5.534;2023-07-02T07:28:59;17.80;99.90
18297;DHT22;18066;52.106;5.534;2023-07-02T07:31:26;17.60;99.90
18297;DHT22;18066;52.106;5.534;2023-07-02T07:33:55;17.70;99.90
18297;DHT22;18066;52.106;5.534;2023-07-02T07:36:21;18.00;99.90
18297;DHT22;18066;52.106;5.534;2023-07-02T07:38:48;18.10;99.90
18297;DHT22;18066;52.106;5.534;2023-07-02T07:41:15;18.10;99.90
18297;DHT22;18066;52.106;5.534;2023-07-02T07:43:42;18.20;99.90
18297;DHT22;18066;52.106;5.534;2023-07-02T07:46:09;18.10;99.90
18297;DHT22;18066;52.106;5.534;2023-07-02T07:48:36;18.30;99.90
18297;DHT22;18066;52.106;5.534;2023-07-02T07:51:05;18.30;99.90
18297;DHT22;18066;52.106;5.534;2023-07-02T07:53:31;18.30;99.90
18297;DHT22;18066;52.106;5.534;2023-07-02T07:55:58;18.00;99.90
18297;DHT22;18066;52.106;5.534;2023-07-02T07:58:25;17.80;99.90
18297;DHT22;18066;52.106;5.534;2023-07-02T08:00:52;17.70;99.90
18297;DHT22;18066;52.106;5.534;2023-07-02T08:03:19;17.60;99.90
18297;DHT22;18066;52.106;5.534;2023-07-02T08:05:46;17.70;99.90
18297;DHT22;18066;52.106;5.534;2023-07-02T08:08:14;17.90;99.90
18297;DHT22;18066;52.106;5.534;2023-07-02T08:10:41;17.90;99.90
18297;DHT22;18066;52.106;5.534;2023-07-02T08:13:08;17.90;99.90
18297;DHT22;18066;52.106;5.534;2023-07-02T08:15:35;17.90;99.90
18297;DHT22;18066;52.106;5.534;2023-07-02T08:18:02;17.90;99.90
18297;DHT22;18066;52.106;5.534;2023-07-02T08:20:29;18.10;99.90
18297;DHT22;18066;52.106;5.534;2023-07-02T08:22:56;18.20;99.90
18297;DHT22;18066;52.106;5.534;2023-07-02T08:25:24;18.10;99.90
18297;DHT22;18066;52.106;5.534;2023-07-02T08:27:52;18.20;99.90
18297;DHT22;18066;52.106;5.534;2023-07-02T08:30:19;18.10;99.90
18297;DHT22;18066;52.106;5.534;2023-07-02T08:32:46;18.30;99.90
18297;DHT22;18066;52.106;5.534;2023-07-02T08:35:13;18.60;99.90
18297;DHT22;18066;52.106;5.534;2023-07-02T08:37:40;18.70;99.90
18297;DHT22;18066;52.106;5.534;2023-07-02T08:40:15;18.50;99.90
18297;DHT22;18066;52.106;5.534;2023-07-02T08:42:45;18.40;99.90
18297;DHT22;18066;52.106;5.534;2023-07-02T08:45:13;18.30;99.90
18297;DHT22;18066;52.106;5.534;2023-07-02T08:47:40;18.40;99.90
18297;DHT22;18066;52.106;5.534;2023-07-02T08:50:08;18.30;99.90
18297;DHT22;18066;52.106;5.534;2023-07-02T08:52:35;18.50;99.90
18297;DHT22;18066;52.106;5.534;2023-07-02T08:55:02;18.70;99.90
18297;DHT22;18066;52.106;5.534;2023-07-02T08:57:29;18.70;99.90
18297;DHT22;18066;52.106;5.534;2023-07-02T08:59:57;18.70;99.90
18297;DHT22;18066;52.106;5.534;2023-07-02T09:02:31;18.90;99.90
18297;DHT22;18066;52.106;5.534;2023-07-02T09:04:59;18.90;99.90
18297;DHT22;18066;52.106;5.534;2023-07-02T09:07:26;18.70;99.90
18297;DHT22;18066;52.106;5.534;2023-07-02T09:09:52;18.40;99.90
18297;DHT22;18066;52.106;5.534;2023-07-02T09:12:24;18.40;99.90
18297;DHT22;18066;52.106;5.534;2023-07-02T09:14:54;18.50;99.90
18297;DHT22;18066;52.106;5.534;2023-07-02T09:17:27;18.90;99.90
18297;DHT22;18066;52.106;5.534;2023-07-02T09:19:55;19.10;99.90
18297;DHT22;18066;52.106;5.534;2023-07-02T09:22:21;19.10;99.90
18297;DHT22;18066;52.106;5.534;2023-07-02T09:24:52;18.80;99.90
18297;DHT22;18066;52.106;5.534;2023-07-02T09:27:19;18.60;99.90
18297;DHT22;18066;52.106;5.534;2023-07-02T09:29:50;18.40;99.90
18297;DHT22;18066;52.106;5.534;2023-07-02T09:32:26;18.30;99.90
18297;DHT22;18066;52.106;5.534;2023-07-02T09:34:54;18.60;99.90
18297;DHT22;18066;52.106;5.534;2023-07-02T09:37:22;18.80;99.90
18297;DHT22;18066;52.106;5.534;2023-07-02T09:39:50;18.90;99.90
18297;DHT22;18066;52.106;5.534;2023-07-02T09:42:18;19.30;99.90
18297;DHT22;18066;52.106;5.534;2023-07-02T09:44:46;19.50;99.90
18297;DHT22;18066;52.106;5.534;2023-07-02T09:47:15;19.70;99.90
18297;DHT22;18066;52.106;5.534;2023-07-02T09:49:49;19.50;99.90
18297;DHT22;18066;52.106;5.534;2023-07-02T09:52:16;19.40;99.90
18297;DHT22;18066;52.106;5.534;2023-07-02T09:54:44;19.50;99.90
18297;DHT22;18066;52.106;5.534;2023-07-02T09:57:11;19.80;99.90
18297;DHT22;18066;52.106;5.534;2023-07-02T09:59:39;20.00;99.90
18297;DHT22;18066;52.106;5.534;2023-07-02T10:02:08;20.00;99.90
18297;DHT22;18066;52.106;5.534;2023-07-02T10:04:40;19.90;99.90
18297;DHT22;18066;52.106;5.534;2023-07-02T10:07:08;19.90;99.90
18297;DHT22;18066;52.106;5.534;2023-07-02T10:09:36;19.50;99.90
18297;DHT22;18066;52.106;5.534;2023-07-02T10:12:15;19.60;99.90
18297;DHT22;18066;52.106;5.534;2023-07-02T10:14:43;19.70;99.90
18297;DHT22;18066;52.106;5.534;2023-07-02T10:17:10;19.40;99.90
18297;DHT22;18066;52.106;5.534;2023-07-02T10:19:37;19.30;99.90
18297;DHT22;18066;52.106;5.534;2023-07-02T10:22:04;19.50;99.90
18297;DHT22;18066;52.106;5.534;2023-07-02T10:24:34;19.80;99.90
18297;DHT22;18066;52.106;5.534;2023-07-02T10:27:02;20.00;99.90
18297;DHT22;18066;52.106;5.534;2023-07-02T10:29:29;19.90;99.90
18297;DHT22;18066;52.106;5.534;2023-07-02T10:31:57;20.10;99.90
18297;DHT22;18066;52.106;5.534;2023-07-02T10:34:30;19.80;99.90
18297;DHT22;18066;52.106;5.534;2023-07-02T10:36:59;19.70;99.90
18297;DHT22;18066;52.106;5.534;2023-07-02T10:39:26;19.70;99.90
18297;DHT22;18066;52.106;5.534;2023-07-02T10:42:03;19.80;99.90
18297;DHT22;18066;52.106;5.534;2023-07-02T10:44:30;19.90;99.90
18297;DHT22;18066;52.106;5.534;2023-07-02T10:46:57;20.00;99.90
18297;DHT22;18066;52.106;5.534;2023-07-02T10:49:30;20.20;99.90
18297;DHT22;18066;52.106;5.534;2023-07-02T10:51:58;20.10;99.90
18297;DHT22;18066;52.106;5.534;2023-07-02T10:54:25;20.10;99.90
18297;DHT22;18066;52.106;5.534;2023-07-02T10:56:57;20.10;99.90
18297;DHT22;18066;52.106;5.534;2023-07-02T10:59:24;20.10;99.90
18297;DHT22;18066;52.106;5.534;2023-07-02T11:01:51;20.10;99.90
18297;DHT22;18066;52.106;5.534;2023-07-02T11:04:18;20.20;99.90
18297;DHT22;18066;52.106;5.534;2023-07-02T11:06:47;20.30;99.90
18297;DHT22;18066;52.106;5.534;2023-07-02T11:09:17;20.10;99.90
18297;DHT22;18066;52.106;5.534;2023-07-02T11:11:53;20.00;99.90
18297;DHT22;18066;52.106;5.534;2023-07-02T11:14:29;19.80;99.90
18297;DHT22;18066;52.106;5.534;2023-07-02T11:16:57;19.80;99.90
18297;DHT22;18066;52.106;5.534;2023-07-02T11:19:24;20.10;99.90
18297;DHT22;18066;52.106;5.534;2023-07-02T11:21:51;20.20;99.90
18297;DHT22;18066;52.106;5.534;2023-07-02T11:24:27;20.10;99.90
18297;DHT22;18066;52.106;5.534;2023-07-02T11:26:55;19.70;99.90
18297;DHT22;18066;52.106;5.534;2023-07-02T11:29:21;19.80;99.90
18297;DHT22;18066;52.106;5.534;2023-07-02T11:31:50;19.80;99.90
18297;DHT22;18066;52.106;5.534;2023-07-02T11:34:17;20.10;99.90
18297;DHT22;18066;52.106;5.534;2023-07-02T11:36:45;20.20;99.90
18297;DHT22;18066;52.106;5.534;2023-07-02T11:39:12;20.20;99.90
18297;DHT22;18066;52.106;5.534;2023-07-02T11:41:40;20.30;99.90
18297;DHT22;18066;52.106;5.534;2023-07-02T11:44:07;20.10;99.90
18297;DHT22;18066;52.106;5.534;2023-07-02T11:46:34;19.90;99.90
18297;DHT22;18066;52.106;5.534;2023-07-02T11:49:03;19.50;99.90
18297;DHT22;18066;52.106;5.534;2023-07-02T11:51:35;19.40;99.90
18297;DHT22;18066;52.106;5.534;2023-07-02T11:54:02;19.40;99.90
18297;DHT22;18066;52.106;5.534;2023-07-02T11:56:29;19.60;99.90
18297;DHT22;18066;52.106;5.534;2023-07-02T11:58:56;19.80;99.90
18297;DHT22;18066;52.106;5.534;2023-07-02T12:01:23;20.10;99.90
18297;DHT22;18066;52.106;5.534;2023-07-02T12:03:50;20.20;99.90
18297;DHT22;18066;52.106;5.534;2023-07-02T12:06:19;20.20;99.90
18297;DHT22;18066;52.106;5.534;2023-07-02T12:08:45;20.10;99.90
18297;DHT22;18066;52.106;5.534;2023-07-02T12:11:12;19.90;99.90
18297;DHT22;18066;52.106;5.534;2023-07-02T12:13:40;20.00;99.90
18297;DHT22;18066;52.106;5.534;2023-07-02T12:16:06;20.40;99.90
18297;DHT22;18066;52.106;5.534;2023-07-02T12:18:33;21.00;99.90
18297;DHT22;18066;52.106;5.534;2023-07-02T12:21:00;20.80;99.90
18297;DHT22;18066;52.106;5.534;2023-07-02T12:23:28;20.60;99.90
18297;DHT22;18066;52.106;5.534;2023-07-02T12:25:55;20.30;99.90
18297;DHT22;18066;52.106;5.534;2023-07-02T12:28:22;20.40;99.90
18297;DHT22;18066;52.106;5.534;2023-07-02T12:30:49;20.70;99.90
18297;DHT22;18066;52.106;5.534;2023-07-02T12:33:16;20.70;99.90
18297;DHT22;18066;52.106;5.534;2023-07-02T12:35:43;20.40;99.90
18297;DHT22;18066;52.106;5.534;2023-07-02T12:38:10;20.20;99.90
18297;DHT22;18066;52.106;5.534;2023-07-02T12:40:38;20.10;99.90
18297;DHT22;18066;52.106;5.534;2023-07-02T12:43:05;20.30;99.90
18297;DHT22;18066;52.106;5.534;2023-07-02T12:45:32;20.60;99.90
18297;DHT22;18066;52.106;5.534;2023-07-02T12:47:59;20.50;99.90
18297;DHT22;18066;52.106;5.534;2023-07-02T12:50:25;20.20;99.90
18297;DHT22;18066;52.106;5.534;2023-07-02T12:52:52;20.20;99.90
18297;DHT22;18066;52.106;5.534;2023-07-02T12:55:19;20.40;99.90
18297;DHT22;18066;52.106;5.534;2023-07-02T12:57:48;20.40;99.90
18297;DHT22;18066;52.106;5.534;2023-07-02T13:00:15;20.80;99.90
18297;DHT22;18066;52.106;5.534;2023-07-02T13:02:42;20.80;99.90
18297;DHT22;18066;52.106;5.534;2023-07-02T13:05:09;20.90;99.90
18297;DHT22;18066;52.106;5.534;2023-07-02T13:07:36;21.20;99.90
18297;DHT22;18066;52.106;5.534;2023-07-02T13:10:03;21.60;99.90
18297;DHT22;18066;52.106;5.534;2023-07-02T13:12:30;21.50;99.90
18297;DHT22;18066;52.106;5.534;2023-07-02T13:14:58;21.20;99.90
18297;DHT22;18066;52.106;5.534;2023-07-02T13:17:25;21.30;99.90
18297;DHT22;18066;52.106;5.534;2023-07-02T13:19:52;20.80;99.90
18297;DHT22;18066;52.106;5.534;2023-07-02T13:22:19;21.10;99.90
18297;DHT22;18066;52.106;5.534;2023-07-02T13:24:45;21.40;99.90
18297;DHT22;18066;52.106;5.534;2023-07-02T13:27:14;21.10;99.90
18297;DHT22;18066;52.106;5.534;2023-07-02T13:29:42;21.10;99.90
18297;DHT22;18066;52.106;5.534;2023-07-02T13:32:10;20.80;99.90
18297;DHT22;18066;52.106;5.534;2023-07-02T13:34:37;20.60;99.90
18297;DHT22;18066;52.106;5.534;2023-07-02T13:37:04;20.90;99.90
18297;DHT22;18066;52.106;5.534;2023-07-02T13:39:31;20.80;99.90
18297;DHT22;18066;52.106;5.534;2023-07-02T13:41:58;21.00;99.90
18297;DHT22;18066;52.106;5.534;2023-07-02T13:44:25;20.60;99.90
18297;DHT22;18066;52.106;5.534;2023-07-02T13:46:52;20.80;99.90
18297;DHT22;18066;52.106;5.534;2023-07-02T13:49:21;20.90;99.90
18297;DHT22;18066;52.106;5.534;2023-07-02T13:51:48;21.20;99.90
18297;DHT22;18066;52.106;5.534;2023-07-02T13:54:16;21.10;99.90
18297;DHT22;18066;52.106;5.534;2023-07-02T13:56:44;20.70;99.90
18297;DHT22;18066;52.106;5.534;2023-07-02T13:59:13;20.50;99.90
18297;DHT22;18066;52.106;5.534;2023-07-02T14:01:40;20.60;99.90
18297;DHT22;18066;52.106;5.534;2023-07-02T14:04:07;20.80;99.90
18297;DHT22;18066;52.106;5.534;2023-07-02T14:06:33;20.80;99.90
18297;DHT22;18066;52.106;5.534;2023-07-02T14:09:00;20.60;99.90
18297;DHT22;18066;52.106;5.534;2023-07-02T14:11:28;20.80;99.90
18297;DHT22;18066;52.106;5.534;2023-07-02T14:13:55;21.10;99.90
18297;DHT22;18066;52.106;5.534;2023-07-02T14:16:24;21.40;99.90
18297;DHT22;18066;52.106;5.534;2023-07-02T14:18:51;21.00;99.90
18297;DHT22;18066;52.106;5.534;2023-07-02T14:21:18;20.70;99.90
18297;DHT22;18066;52.106;5.534;2023-07-02T14:23:45;20.90;99.90
18297;DHT22;18066;52.106;5.534;2023-07-02T14:26:13;20.80;99.90
18297;DHT22;18066;52.106;5.534;2023-07-02T14:28:39;20.80;99.90
18297;DHT22;18066;52.106;5.534;2023-07-02T14:31:07;20.80;99.90
18297;DHT22;18066;52.106;5.534;2023-07-02T14:33:36;20.60;99.90
18297;DHT22;18066;52.106;5.534;2023-07-02T14:36:04;20.40;99.90
18297;DHT22;18066;52.106;5.534;2023-07-02T14:38:32;21.00;99.90
18297;DHT22;18066;52.106;5.534;2023-07-02T14:41:00;21.80;99.90
18297;DHT22;18066;52.106;5.534;2023-07-02T14:43:28;22.20;99.90
18297;DHT22;18066;52.106;5.534;2023-07-02T14:45:58;22.00;99.90
18297;DHT22;18066;52.106;5.534;2023-07-02T14:48:26;22.70;99.90
18297;DHT22;18066;52.106;5.534;2023-07-02T14:50:55;23.40;99.90
18297;DHT22;18066;52.106;5.534;2023-07-02T14:53:24;23.40;99.90
18297;DHT22;18066;52.106;5.534;2023-07-02T14:55:54;23.80;99.90
18297;DHT22;18066;52.106;5.534;2023-07-02T14:58:21;24.00;99.90
18297;DHT22;18066;52.106;5.534;2023-07-02T15:00:50;24.00;99.90
18297;DHT22;18066;52.106;5.534;2023-07-02T15:03:18;23.90;99.90
18297;DHT22;18066;52.106;5.534;2023-07-02T15:05:46;24.10;99.90
18297;DHT22;18066;52.106;5.534;2023-07-02T15:08:15;24.40;99.90
18297;DHT22;18066;52.106;5.534;2023-07-02T15:10:45;24.20;99.90
18297;DHT22;18066;52.106;5.534;2023-07-02T15:13:12;23.30;99.90
18297;DHT22;18066;52.106;5.534;2023-07-02T15:15:39;23.90;99.90
18297;DHT22;18066;52.106;5.534;2023-07-02T15:18:06;24.40;99.90
18297;DHT22;18066;52.106;5.534;2023-07-02T15:20:33;25.30;99.90
18297;DHT22;18066;52.106;5.534;2023-07-02T15:23:00;26.30;99.90
18297;DHT22;18066;52.106;5.534;2023-07-02T15:25:30;26.30;99.90
18297;DHT22;18066;52.106;5.534;2023-07-02T15:27:57;25.50;99.90
18297;DHT22;18066;52.106;5.534;2023-07-02T15:30:24;25.10;99.90
18297;DHT22;18066;52.106;5.534;2023-07-02T15:32:51;25.90;99.90
18297;DHT22;18066;52.106;5.534;2023-07-02T15:35:18;24.90;99.40
18297;DHT22;18066;52.106;5.534;2023-07-02T15:37:45;24.60;99.90
18297;DHT22;18066;52.106;5.534;2023-07-02T15:40:12;23.80;99.90
18297;DHT22;18066;52.106;5.534;2023-07-02T15:42:40;23.40;99.90
18297;DHT22;18066;52.106;5.534;2023-07-02T15:45:08;23.10;99.90
18297;DHT22;18066;52.106;5.534;2023-07-02T15:47:35;24.00;99.90
18297;DHT22;18066;52.106;5.534;2023-07-02T15:50:02;23.90;99.90
18297;DHT22;18066;52.106;5.534;2023-07-02T15:52:30;24.20;99.90
18297;DHT22;18066;52.106;5.534;2023-07-02T15:54:57;24.10;99.90
18297;DHT22;18066;52.106;5.534;2023-07-02T15:57:23;23.10;99.90
18297;DHT22;18066;52.106;5.534;2023-07-02T15:59:52;23.20;99.90
18297;DHT22;18066;52.106;5.534;2023-07-02T16:02:20;24.20;99.90
18297;DHT22;18066;52.106;5.534;2023-07-02T16:04:47;24.10;99.90
18297;DHT22;18066;52.106;5.534;2023-07-02T16:07:14;24.50;99.90
18297;DHT22;18066;52.106;5.534;2023-07-02T16:09:41;25.00;99.90
18297;DHT22;18066;52.106;5.534;2023-07-02T16:12:09;25.30;99.90
18297;DHT22;18066;52.106;5.534;2023-07-02T16:14:35;25.50;99.90
18297;DHT22;18066;52.106;5.534;2023-07-02T16:17:05;24.90;99.90
18297;DHT22;18066;52.106;5.534;2023-07-02T16:19:32;24.00;99.90
18297;DHT22;18066;52.106;5.534;2023-07-02T16:21:59;23.60;99.90
18297;DHT22;18066;52.106;5.534;2023-07-02T16:24:28;23.00;99.90
18297;DHT22;18066;52.106;5.534;2023-07-02T16:26:55;22.70;99.90
18297;DHT22;18066;52.106;5.534;2023-07-02T16:29:23;22.50;99.90
18297;DHT22;18066;52.106;5.534;2023-07-02T16:31:53;22.50;99.90
18297;DHT22;18066;52.106;5.534;2023-07-02T16:34:23;22.20;99.90
18297;DHT22;18066;52.106;5.534;2023-07-02T16:36:50;22.60;99.90
18297;DHT22;18066;52.106;5.534;2023-07-02T16:39:18;22.60;99.90
18297;DHT22;18066;52.106;5.534;2023-07-02T16:41:46;21.90;99.90
18297;DHT22;18066;52.106;5.534;2023-07-02T16:44:15;21.30;99.90
18297;DHT22;18066;52.106;5.534;2023-07-02T16:46:43;20.80;99.90
18297;DHT22;18066;52.106;5.534;2023-07-02T16:49:11;20.60;99.90
18297;DHT22;18066;52.106;5.534;2023-07-02T16:51:39;20.60;99.90
18297;DHT22;18066;52.106;5.534;2023-07-02T16:54:09;20.60;99.90